sensor_id;sensor_type;location;lat;lon;timestamp;pressure;altitude;pressure_sealevel;temperature;humidity
70009;BME280;59542;37.950;-122.338;2023-01-28T00:00:08;101718.16;;;12.82;68.08
70009;BME280;59542;37.950;-122.338;2023-01-28T00:02:35;101711.69;;;12.69;68.25
70009;BME280;59542;37.950;-122.338;2023-01-28T00:05:02;101713.41;;;12.77;67.79
70009;BME280;59542;37.950;-122.338;2023-01-28T00:07:28;101709.41;;;12.66;68.25
70009;BME280;59542;37.950;-122.338;2023-01-28T00:09:55;101705.69;;;12.67;68.39
70009;BME280;59542;37.950;-122.338;2023-01-28T00:12:21;101697.06;;;12.79;67.74
70009;BME280;59542;37.950;-122.338;2023-01-28T00:14:48;101693.16;;;12.47;68.54
70009;BME280;59542;37.950;-122.338;2023-01-28T00:17:14;101685.13;;;12.47;68.52
70009;BME280;59542;37.950;-122.338;2023-01-28T00:19:41;101687.50;;;12.28;69.58
70009;BME280;59542;37.950;-122.338;2023-01-28T00:22:07;101675.72;;;12.29;70.48
70009;BME280;59542;37.950;-122.338;2023-01-28T00:24:33;101666.75;;;12.15;71.39
70009;BME280;59542;37.950;-122.338;2023-01-28T00:26:59;101662.22;;;12.16;71.53
70009;BME280;59542;37.950;-122.338;2023-01-28T00:29:26;101651.50;;;12.16;71.83
70009;BME280;59542;37.950;-122.338;2023-01-28T00:31:52;101656.84;;;12.16;72.10
70009;BME280;59542;37.950;-122.338;2023-01-28T00:34:18;101654.59;;;11.92;73.72
70009;BME280;59542;37.950;-122.338;2023-01-28T00:36:45;101659.94;;;11.85;74.29
70009;BME280;59542;37.950;-122.338;2023-01-28T00:39:23;101654.75;;;11.83;74.29
70009;BME280;59542;37.950;-122.338;2023-01-28T00:41:50;101658.06;;;11.64;75.24
70009;BME280;59542;37.950;-122.338;2023-01-28T00:44:18;101657.84;;;11.66;75.26
70009;BME280;59542;37.950;-122.338;2023-01-28T00:46:44;101669.34;;;11.59;75.11
70009;BME280;59542;37.950;-122.338;2023-01-28T00:49:11;101650.66;;;11.66;74.94
70009;BME280;59542;37.950;-122.338;2023-01-28T00:51:37;101648.88;;;11.52;75.57
70009;BME280;59542;37.950;-122.338;2023-01-28T00:54:04;101653.88;;;11.55;75.74
70009;BME280;59542;37.950;-122.338;2023-01-28T00:56:30;101647.66;;;11.54;75.65
70009;BME280;59542;37.950;-122.338;2023-01-28T00:58:56;101645.16;;;11.53;75.39
70009;BME280;59542;37.950;-122.338;2023-01-28T01:01:25;101637.34;;;11.51;75.07
70009;BME280;59542;37.950;-122.338;2023-01-28T01:03:52;101627.81;;;11.49;75.32
70009;BME280;59542;37.950;-122.338;2023-01-28T01:06:30;101621.50;;;11.35;76.02
70009;BME280;59542;37.950;-122.338;2023-01-28T01:08:56;101611.88;;;11.41;76.26
70009;BME280;59542;37.950;-122.338;2023-01-28T01:11:23;101615.56;;;11.18;76.85
70009;BME280;59542;37.950;-122.338;2023-01-28T01:13:57;101631.03;;;11.16;77.32
70009;BME280;59542;37.950;-122.338;2023-01-28T01:16:26;101637.38;;;11.15;76.97
70009;BME280;59542;37.950;-122.338;2023-01-28T01:18:53;101613.97;;;11.02;77.32
70009;BME280;59542;37.950;-122.338;2023-01-28T01:21:23;101626.50;;;10.80;77.63
70009;BME280;59542;37.950;-122.338;2023-01-28T01:23:53;101607.28;;;11.13;76.88
70009;BME280;59542;37.950;-122.338;2023-01-28T01:26:20;101612.03;;;10.96;77.87
70009;BME280;59542;37.950;-122.338;2023-01-28T01:28:46;101605.19;;;10.72;79.11
70009;BME280;59542;37.950;-122.338;2023-01-28T01:31:18;101609.25;;;10.68;79.02
70009;BME280;59542;37.950;-122.338;2023-01-28T01:33:46;101596.69;;;10.69;78.85
70009;BME280;59542;37.950;-122.338;2023-01-28T01:36:14;101608.25;;;10.54;79.52
70009;BME280;59542;37.950;-122.338;2023-01-28T01:38:42;101598.50;;;10.47;80.11
70009;BME280;59542;37.950;-122.338;2023-01-28T01:41:12;101609.47;;;10.37;80.33
70009;BME280;59542;37.950;-122.338;2023-01-28T01:44:00;101597.31;;;10.35;80.36
70009;BME280;59542;37.950;-122.338;2023-01-28T01:48:56;101597.38;;;10.12;81.24
70009;BME280;59542;37.950;-122.338;2023-01-28T01:51:30;101596.16;;;10.14;80.91
70009;BME280;59542;37.950;-122.338;2023-01-28T01:53:58;101605.31;;;10.05;81.62
70009;BME280;59542;37.950;-122.338;2023-01-28T01:56:29;101585.56;;;10.06;81.27
70009;BME280;59542;37.950;-122.338;2023-01-28T01:58:57;101576.34;;;10.09;80.91
70009;BME280;59542;37.950;-122.338;2023-01-28T02:01:28;101578.28;;;10.00;81.24
70009;BME280;59542;37.950;-122.338;2023-01-28T02:06:30;101566.56;;;10.01;81.40
70009;BME280;59542;37.950;-122.338;2023-01-28T02:08:56;101580.22;;;9.91;81.61
70009;BME280;59542;37.950;-122.338;2023-01-28T02:11:27;101578.16;;;9.93;81.87
70009;BME280;59542;37.950;-122.338;2023-01-28T02:13:55;101577.53;;;9.91;81.85
70009;BME280;59542;37.950;-122.338;2023-01-28T02:16:23;101579.94;;;10.01;81.17
70009;BME280;59542;37.950;-122.338;2023-01-28T02:18:50;101581.41;;;9.89;82.24
70009;BME280;59542;37.950;-122.338;2023-01-28T02:26:52;101564.09;;;9.99;82.30
70009;BME280;59542;37.950;-122.338;2023-01-28T02:29:37;101573.56;;;9.72;83.39
70009;BME280;59542;37.950;-122.338;2023-01-28T02:34:46;101569.38;;;9.55;84.78
70009;BME280;59542;37.950;-122.338;2023-01-28T02:37:44;101563.94;;;9.63;84.25
70009;BME280;59542;37.950;-122.338;2023-01-28T02:40:25;101559.53;;;9.56;84.48
70009;BME280;59542;37.950;-122.338;2023-01-28T02:42:55;101555.84;;;9.57;84.36
70009;BME280;59542;37.950;-122.338;2023-01-28T02:45:25;101565.69;;;9.56;85.04
70009;BME280;59542;37.950;-122.338;2023-01-28T02:48:11;101565.31;;;9.59;85.06
70009;BME280;59542;37.950;-122.338;2023-01-28T02:51:08;101561.84;;;9.73;84.46
70009;BME280;59542;37.950;-122.338;2023-01-28T02:53:44;101564.25;;;9.83;84.15
70009;BME280;59542;37.950;-122.338;2023-01-28T02:56:40;101567.66;;;9.77;83.41
70009;BME280;59542;37.950;-122.338;2023-01-28T02:59:28;101562.19;;;9.70;84.24
70009;BME280;59542;37.950;-122.338;2023-01-28T03:07:09;101569.25;;;9.48;85.50
70009;BME280;59542;37.950;-122.338;2023-01-28T03:09:39;101562.19;;;9.70;85.20
70009;BME280;59542;37.950;-122.338;2023-01-28T03:12:13;101571.25;;;9.84;84.73
70009;BME280;59542;37.950;-122.338;2023-01-28T03:15:13;101579.09;;;9.86;84.82
70009;BME280;59542;37.950;-122.338;2023-01-28T03:18:19;101578.63;;;9.67;85.56
70009;BME280;59542;37.950;-122.338;2023-01-28T03:21:39;101589.91;;;9.55;87.28
70009;BME280;59542;37.950;-122.338;2023-01-28T03:24:31;101589.16;;;9.46;88.02
70009;BME280;59542;37.950;-122.338;2023-01-28T03:28:02;101574.28;;;9.66;86.68
70009;BME280;59542;37.950;-122.338;2023-01-28T03:31:11;101577.84;;;9.44;87.19
70009;BME280;59542;37.950;-122.338;2023-01-28T03:33:58;101586.97;;;9.49;86.39
70009;BME280;59542;37.950;-122.338;2023-01-28T03:36:45;101577.84;;;9.59;85.81
70009;BME280;59542;37.950;-122.338;2023-01-28T03:39:17;101574.03;;;9.38;86.73
70009;BME280;59542;37.950;-122.338;2023-01-28T03:42:06;101580.78;;;9.49;86.34
70009;BME280;59542;37.950;-122.338;2023-01-28T03:44:32;101582.94;;;9.68;85.42
70009;BME280;59542;37.950;-122.338;2023-01-28T03:47:28;101590.59;;;9.71;84.46
70009;BME280;59542;37.950;-122.338;2023-01-28T03:49:56;101590.53;;;9.79;83.63
70009;BME280;59542;37.950;-122.338;2023-01-28T03:52:27;101597.75;;;9.94;81.73
70009;BME280;59542;37.950;-122.338;2023-01-28T03:54:55;101592.22;;;9.95;81.91
70009;BME280;59542;37.950;-122.338;2023-01-28T03:57:23;101587.13;;;9.86;82.26
70009;BME280;59542;37.950;-122.338;2023-01-28T03:59:51;101582.59;;;9.86;81.90
70009;BME280;59542;37.950;-122.338;2023-01-28T04:02:19;101587.13;;;9.86;81.30
70009;BME280;59542;37.950;-122.338;2023-01-28T04:04:46;101587.84;;;9.79;81.57
70009;BME280;59542;37.950;-122.338;2023-01-28T04:07:12;101578.63;;;9.97;80.35
70009;BME280;59542;37.950;-122.338;2023-01-28T04:09:40;101583.81;;;9.84;80.56
70009;BME280;59542;37.950;-122.338;2023-01-28T04:12:08;101580.00;;;9.63;81.14
70009;BME280;59542;37.950;-122.338;2023-01-28T04:14:35;101580.63;;;9.65;81.12
70009;BME280;59542;37.950;-122.338;2023-01-28T04:17:01;101590.72;;;9.93;79.65
70009;BME280;59542;37.950;-122.338;2023-01-28T04:19:28;101590.19;;;9.45;81.86
70009;BME280;59542;37.950;-122.338;2023-01-28T04:21:56;101586.94;;;9.72;80.78
70009;BME280;59542;37.950;-122.338;2023-01-28T04:24:22;101580.28;;;9.68;80.24
70009;BME280;59542;37.950;-122.338;2023-01-28T04:26:49;101572.09;;;9.85;79.98
70009;BME280;59542;37.950;-122.338;2023-01-28T04:29:15;101570.75;;;9.66;80.42
70009;BME280;59542;37.950;-122.338;2023-01-28T04:31:41;101585.44;;;9.55;80.60
70009;BME280;59542;37.950;-122.338;2023-01-28T04:34:07;101587.44;;;9.53;80.53
70009;BME280;59542;37.950;-122.338;2023-01-28T04:36:34;101589.47;;;9.51;80.26
70009;BME280;59542;37.950;-122.338;2023-01-28T04:39:01;101580.44;;;9.52;80.06
70009;BME280;59542;37.950;-122.338;2023-01-28T04:41:27;101585.41;;;9.17;80.86
70009;BME280;59542;37.950;-122.338;2023-01-28T04:43:53;101589.09;;;9.16;80.53
70009;BME280;59542;37.950;-122.338;2023-01-28T04:46:19;101592.69;;;9.23;80.00
70009;BME280;59542;37.950;-122.338;2023-01-28T04:48:45;101578.81;;;9.28;79.78
70009;BME280;59542;37.950;-122.338;2023-01-28T04:51:12;101593.00;;;9.29;79.28
70009;BME280;59542;37.950;-122.338;2023-01-28T04:53:38;101585.69;;;9.22;79.19
70009;BME280;59542;37.950;-122.338;2023-01-28T04:56:04;101584.19;;;8.97;80.38
70009;BME280;59542;37.950;-122.338;2023-01-28T04:58:30;101599.06;;;8.60;81.85
70009;BME280;59542;37.950;-122.338;2023-01-28T05:00:58;101586.84;;;8.74;81.24
70009;BME280;59542;37.950;-122.338;2023-01-28T05:03:25;101580.56;;;8.67;81.59
70009;BME280;59542;37.950;-122.338;2023-01-28T05:05:51;101588.47;;;8.83;80.57
70009;BME280;59542;37.950;-122.338;2023-01-28T05:08:18;101592.38;;;8.72;80.40
70009;BME280;59542;37.950;-122.338;2023-01-28T05:10:44;101578.66;;;8.76;80.41
70009;BME280;59542;37.950;-122.338;2023-01-28T05:13:10;101574.00;;;8.78;79.98
70009;BME280;59542;37.950;-122.338;2023-01-28T05:15:37;101580.41;;;8.60;80.22
70009;BME280;59542;37.950;-122.338;2023-01-28T05:18:03;101575.44;;;8.57;80.15
70009;BME280;59542;37.950;-122.338;2023-01-28T05:20:29;101580.06;;;8.63;79.79
70009;BME280;59542;37.950;-122.338;2023-01-28T05:22:56;101574.50;;;8.42;80.13
70009;BME280;59542;37.950;-122.338;2023-01-28T05:25:23;101585.88;;;8.28;80.58
70009;BME280;59542;37.950;-122.338;2023-01-28T05:27:50;101599.69;;;8.39;80.68
70009;BME280;59542;37.950;-122.338;2023-01-28T05:30:20;101591.31;;;8.51;79.98
70009;BME280;59542;37.950;-122.338;2023-01-28T05:32:46;101599.84;;;8.46;80.17
70009;BME280;59542;37.950;-122.338;2023-01-28T05:35:12;101591.47;;;8.49;79.84
70009;BME280;59542;37.950;-122.338;2023-01-28T05:37:39;101598.31;;;8.52;79.82
70009;BME280;59542;37.950;-122.338;2023-01-28T05:40:05;101582.78;;;8.55;79.76
70009;BME280;59542;37.950;-122.338;2023-01-28T05:42:32;101590.47;;;8.50;79.52
70009;BME280;59542;37.950;-122.338;2023-01-28T05:44:58;101594.50;;;8.46;79.34
70009;BME280;59542;37.950;-122.338;2023-01-28T05:47:25;101601.81;;;8.52;78.44
70009;BME280;59542;37.950;-122.338;2023-01-28T05:49:51;101594.50;;;8.38;79.29
70009;BME280;59542;37.950;-122.338;2023-01-28T05:52:18;101596.69;;;8.34;79.29
70009;BME280;59542;37.950;-122.338;2023-01-28T05:54:44;101595.84;;;8.34;79.15
70009;BME280;59542;37.950;-122.338;2023-01-28T05:57:10;101590.72;;;8.24;79.57
70009;BME280;59542;37.950;-122.338;2023-01-28T05:59:36;101596.75;;;8.18;79.82
70009;BME280;59542;37.950;-122.338;2023-01-28T06:02:03;101596.38;;;8.21;79.63
70009;BME280;59542;37.950;-122.338;2023-01-28T06:04:29;101592.50;;;7.76;81.60
70009;BME280;59542;37.950;-122.338;2023-01-28T06:06:55;101595.28;;;7.99;80.57
70009;BME280;59542;37.950;-122.338;2023-01-28T06:09:21;101594.91;;;8.10;79.96
70009;BME280;59542;37.950;-122.338;2023-01-28T06:11:47;101596.41;;;8.13;79.21
70009;BME280;59542;37.950;-122.338;2023-01-28T06:14:15;101593.75;;;8.13;78.95
70009;BME280;59542;37.950;-122.338;2023-01-28T06:16:41;101598.91;;;8.14;78.76
70009;BME280;59542;37.950;-122.338;2023-01-28T06:19:07;101597.75;;;8.09;78.61
70009;BME280;59542;37.950;-122.338;2023-01-28T06:21:33;101595.44;;;8.06;78.61
70009;BME280;59542;37.950;-122.338;2023-01-28T06:23:59;101598.94;;;8.06;78.77
70009;BME280;59542;37.950;-122.338;2023-01-28T06:26:26;101597.06;;;8.15;78.02
70009;BME280;59542;37.950;-122.338;2023-01-28T06:28:52;101602.63;;;8.05;77.78
70009;BME280;59542;37.950;-122.338;2023-01-28T06:31:18;101601.09;;;8.03;77.61
70009;BME280;59542;37.950;-122.338;2023-01-28T06:33:44;101600.63;;;7.91;77.46
70009;BME280;59542;37.950;-122.338;2023-01-28T06:36:11;101597.94;;;7.99;77.80
70009;BME280;59542;37.950;-122.338;2023-01-28T06:38:37;101594.31;;;7.92;77.67
70009;BME280;59542;37.950;-122.338;2023-01-28T06:41:03;101596.16;;;7.83;77.70
70009;BME280;59542;37.950;-122.338;2023-01-28T06:43:29;101589.31;;;7.81;77.72
70009;BME280;59542;37.950;-122.338;2023-01-28T06:45:56;101592.66;;;7.75;77.69
70009;BME280;59542;37.950;-122.338;2023-01-28T06:48:24;101605.00;;;7.76;77.89
70009;BME280;59542;37.950;-122.338;2023-01-28T06:50:50;101596.84;;;7.69;77.64
70009;BME280;59542;37.950;-122.338;2023-01-28T06:53:17;101594.50;;;7.66;77.47
70009;BME280;59542;37.950;-122.338;2023-01-28T06:55:44;101607.00;;;7.65;77.15
70009;BME280;59542;37.950;-122.338;2023-01-28T06:58:10;101607.00;;;7.65;76.95
70009;BME280;59542;37.950;-122.338;2023-01-28T07:00:37;101609.16;;;7.54;76.99
70009;BME280;59542;37.950;-122.338;2023-01-28T07:03:03;101610.66;;;7.48;76.98
70009;BME280;59542;37.950;-122.338;2023-01-28T07:05:30;101602.69;;;7.56;76.91
70009;BME280;59542;37.950;-122.338;2023-01-28T07:07:56;101606.69;;;7.52;76.40
70009;BME280;59542;37.950;-122.338;2023-01-28T07:10:22;101609.84;;;7.48;76.23
70009;BME280;59542;37.950;-122.338;2023-01-28T07:12:49;101607.00;;;7.41;76.78
70009;BME280;59542;37.950;-122.338;2023-01-28T07:15:16;101617.69;;;7.33;76.64
70009;BME280;59542;37.950;-122.338;2023-01-28T07:17:43;101604.38;;;7.33;76.93
70009;BME280;59542;37.950;-122.338;2023-01-28T07:20:12;101607.66;;;7.27;76.89
70009;BME280;59542;37.950;-122.338;2023-01-28T07:22:41;101606.84;;;7.26;76.80
70009;BME280;59542;37.950;-122.338;2023-01-28T07:25:08;101596.19;;;7.34;76.88
70009;BME280;59542;37.950;-122.338;2023-01-28T07:27:35;101605.53;;;7.22;77.14
70009;BME280;59542;37.950;-122.338;2023-01-28T07:30:01;101612.47;;;7.07;78.88
70009;BME280;59542;37.950;-122.338;2023-01-28T07:32:28;101606.16;;;7.16;78.61
70009;BME280;59542;37.950;-122.338;2023-01-28T07:34:54;101611.16;;;7.19;78.41
70009;BME280;59542;37.950;-122.338;2023-01-28T07:37:20;101606.34;;;7.31;78.53
70009;BME280;59542;37.950;-122.338;2023-01-28T07:39:47;101601.69;;;7.57;78.25
70009;BME280;59542;37.950;-122.338;2023-01-28T07:42:13;101614.00;;;7.58;77.86
70009;BME280;59542;37.950;-122.338;2023-01-28T07:44:39;101609.03;;;7.39;78.02
70009;BME280;59542;37.950;-122.338;2023-01-28T07:47:06;101613.00;;;7.19;78.86
70009;BME280;59542;37.950;-122.338;2023-01-28T07:49:32;101601.69;;;7.33;78.85
70009;BME280;59542;37.950;-122.338;2023-01-28T07:51:59;101597.97;;;6.85;81.05
70009;BME280;59542;37.950;-122.338;2023-01-28T07:54:25;101611.69;;;6.64;81.78
70009;BME280;59542;37.950;-122.338;2023-01-28T07:56:52;101608.91;;;6.82;81.07
70009;BME280;59542;37.950;-122.338;2023-01-28T07:59:18;101608.31;;;6.96;80.09
70009;BME280;59542;37.950;-122.338;2023-01-28T08:01:44;101608.44;;;6.86;80.23
70009;BME280;59542;37.950;-122.338;2023-01-28T08:04:10;101599.16;;;7.07;78.97
70009;BME280;59542;37.950;-122.338;2023-01-28T08:06:36;101601.63;;;6.84;79.62
70009;BME280;59542;37.950;-122.338;2023-01-28T08:09:04;101599.75;;;6.76;79.69
70009;BME280;59542;37.950;-122.338;2023-01-28T08:11:31;101606.91;;;6.76;79.59
70009;BME280;59542;37.950;-122.338;2023-01-28T08:13:58;101600.41;;;6.70;79.71
70009;BME280;59542;37.950;-122.338;2023-01-28T08:16:25;101598.91;;;6.68;80.07
70009;BME280;59542;37.950;-122.338;2023-01-28T08:18:52;101595.63;;;6.74;79.44
70009;BME280;59542;37.950;-122.338;2023-01-28T08:21:18;101582.97;;;6.68;79.41
70009;BME280;59542;37.950;-122.338;2023-01-28T08:23:44;101580.63;;;6.65;79.38
70009;BME280;59542;37.950;-122.338;2023-01-28T08:26:11;101582.09;;;6.59;79.18
70009;BME280;59542;37.950;-122.338;2023-01-28T08:28:37;101572.97;;;6.70;78.46
70009;BME280;59542;37.950;-122.338;2023-01-28T08:31:03;101581.25;;;6.58;78.41
70009;BME280;59542;37.950;-122.338;2023-01-28T08:33:30;101572.63;;;6.56;78.43
70009;BME280;59542;37.950;-122.338;2023-01-28T08:35:56;101577.41;;;6.53;78.78
70009;BME280;59542;37.950;-122.338;2023-01-28T08:38:23;101569.91;;;6.48;78.56
70009;BME280;59542;37.950;-122.338;2023-01-28T08:40:50;101575.88;;;6.42;78.44
70009;BME280;59542;37.950;-122.338;2023-01-28T08:43:18;101565.25;;;6.42;78.15
70009;BME280;59542;37.950;-122.338;2023-01-28T08:45:45;101562.25;;;6.37;78.32
70009;BME280;59542;37.950;-122.338;2023-01-28T08:48:14;101560.31;;;6.55;78.83
70009;BME280;59542;37.950;-122.338;2023-01-28T08:50:40;101553.25;;;6.38;79.29
70009;BME280;59542;37.950;-122.338;2023-01-28T08:53:13;101551.75;;;6.27;79.75
70009;BME280;59542;37.950;-122.338;2023-01-28T08:55:40;101545.69;;;6.51;79.17
70009;BME280;59542;37.950;-122.338;2023-01-28T08:58:09;101550.72;;;6.79;78.30
70009;BME280;59542;37.950;-122.338;2023-01-28T09:00:36;101543.66;;;6.45;79.11
70009;BME280;59542;37.950;-122.338;2023-01-28T09:03:03;101543.16;;;6.42;79.25
70009;BME280;59542;37.950;-122.338;2023-01-28T09:05:30;101545.19;;;6.64;78.79
70009;BME280;59542;37.950;-122.338;2023-01-28T09:08:04;101543.41;;;6.81;77.86
70009;BME280;59542;37.950;-122.338;2023-01-28T09:10:31;101554.25;;;6.29;79.80
70009;BME280;59542;37.950;-122.338;2023-01-28T09:12:57;101550.81;;;6.45;80.49
70009;BME280;59542;37.950;-122.338;2023-01-28T09:15:24;101540.63;;;6.32;81.11
70009;BME280;59542;37.950;-122.338;2023-01-28T09:17:56;101539.38;;;6.10;83.07
70009;BME280;59542;37.950;-122.338;2023-01-28T09:20:23;101540.66;;;5.98;84.19
70009;BME280;59542;37.950;-122.338;2023-01-28T09:22:50;101549.84;;;5.86;85.14
70009;BME280;59542;37.950;-122.338;2023-01-28T09:25:16;101547.31;;;5.76;86.00
70009;BME280;59542;37.950;-122.338;2023-01-28T09:27:42;101544.78;;;5.92;85.56
70009;BME280;59542;37.950;-122.338;2023-01-28T09:30:09;101547.50;;;5.82;86.00
70009;BME280;59542;37.950;-122.338;2023-01-28T09:32:35;101546.06;;;5.62;86.62
70009;BME280;59542;37.950;-122.338;2023-01-28T09:35:02;101544.72;;;5.58;87.67
70009;BME280;59542;37.950;-122.338;2023-01-28T09:37:28;101549.13;;;5.49;88.56
70009;BME280;59542;37.950;-122.338;2023-01-28T09:39:54;101549.84;;;5.60;87.82
70009;BME280;59542;37.950;-122.338;2023-01-28T09:45:12;101544.13;;;5.46;88.31
70009;BME280;59542;37.950;-122.338;2023-01-28T09:47:50;101543.84;;;5.32;89.38
70009;BME280;59542;37.950;-122.338;2023-01-28T09:52:50;101542.38;;;5.11;90.15
70009;BME280;59542;37.950;-122.338;2023-01-28T09:55:48;101536.75;;;5.14;89.47
70009;BME280;59542;37.950;-122.338;2023-01-28T09:58:14;101533.38;;;5.30;89.16
70009;BME280;59542;37.950;-122.338;2023-01-28T10:12:03;101553.13;;;5.53;85.23
70009;BME280;59542;37.950;-122.338;2023-01-28T10:14:48;101553.75;;;5.47;85.01
70009;BME280;59542;37.950;-122.338;2023-01-28T10:19:52;101552.09;;;5.46;84.71
70009;BME280;59542;37.950;-122.338;2023-01-28T10:22:30;101556.94;;;5.51;84.23
70009;BME280;59542;37.950;-122.338;2023-01-28T10:25:02;101555.59;;;5.47;84.15
70009;BME280;59542;37.950;-122.338;2023-01-28T10:27:32;101566.03;;;5.48;83.75
70009;BME280;59542;37.950;-122.338;2023-01-28T10:30:16;101554.91;;;5.45;83.44
70009;BME280;59542;37.950;-122.338;2023-01-28T10:35:16;101566.34;;;5.71;81.33
70009;BME280;59542;37.950;-122.338;2023-01-28T10:37:42;101565.75;;;5.51;81.17
70009;BME280;59542;37.950;-122.338;2023-01-28T10:40:16;101570.00;;;5.44;81.61
70009;BME280;59542;37.950;-122.338;2023-01-28T10:42:44;101561.25;;;5.52;81.11
70009;BME280;59542;37.950;-122.338;2023-01-28T10:45:27;101565.53;;;5.45;81.29
70009;BME280;59542;37.950;-122.338;2023-01-28T10:50:30;101556.03;;;5.42;80.61
70009;BME280;59542;37.950;-122.338;2023-01-28T10:52:59;101561.81;;;5.38;80.95
70009;BME280;59542;37.950;-122.338;2023-01-28T10:55:28;101571.69;;;5.45;80.82
70009;BME280;59542;37.950;-122.338;2023-01-28T10:57:56;101571.75;;;5.36;80.73
70009;BME280;59542;37.950;-122.338;2023-01-28T11:00:26;101572.06;;;5.33;80.92
70009;BME280;59542;37.950;-122.338;2023-01-28T11:02:54;101566.25;;;5.29;80.83
70009;BME280;59542;37.950;-122.338;2023-01-28T11:05:26;101560.94;;;5.29;80.81
70009;BME280;59542;37.950;-122.338;2023-01-28T11:10:38;101561.09;;;5.10;81.83
70009;BME280;59542;37.950;-122.338;2023-01-28T11:13:13;101563.75;;;5.27;80.54
70009;BME280;59542;37.950;-122.338;2023-01-28T11:16:13;101571.34;;;5.22;80.86
70009;BME280;59542;37.950;-122.338;2023-01-28T11:18:54;101565.19;;;5.22;80.78
70009;BME280;59542;37.950;-122.338;2023-01-28T11:21:25;101570.50;;;5.22;80.49
70009;BME280;59542;37.950;-122.338;2023-01-28T11:24:04;101573.50;;;5.27;80.08
70009;BME280;59542;37.950;-122.338;2023-01-28T11:26:36;101566.53;;;5.26;79.55
70009;BME280;59542;37.950;-122.338;2023-01-28T11:29:03;101556.00;;;5.16;80.07
70009;BME280;59542;37.950;-122.338;2023-01-28T11:31:38;101555.47;;;5.13;80.18
70009;BME280;59542;37.950;-122.338;2023-01-28T11:34:06;101554.72;;;5.02;80.58
70009;BME280;59542;37.950;-122.338;2023-01-28T11:36:34;101554.19;;;4.99;81.19
70009;BME280;59542;37.950;-122.338;2023-01-28T11:42:19;101559.13;;;5.12;81.31
70009;BME280;59542;37.950;-122.338;2023-01-28T11:44:46;101558.97;;;5.13;81.38
70009;BME280;59542;37.950;-122.338;2023-01-28T11:52:41;101557.75;;;5.08;81.14
70009;BME280;59542;37.950;-122.338;2023-01-28T11:55:30;101558.88;;;5.05;81.26
70009;BME280;59542;37.950;-122.338;2023-01-28T12:12:07;101565.53;;;5.45;81.29
70009;BME280;59542;37.950;-122.338;2023-01-28T12:17:55;101559.50;;;4.99;83.26
70009;BME280;59542;37.950;-122.338;2023-01-28T12:26:12;101541.69;;;4.91;82.99
70009;BME280;59542;37.950;-122.338;2023-01-28T12:37:56;101548.28;;;4.87;82.35
70009;BME280;59542;37.950;-122.338;2023-01-28T12:43:04;101547.00;;;4.73;84.56
70009;BME280;59542;37.950;-122.338;2023-01-28T12:45:40;101545.00;;;4.93;84.33
70009;BME280;59542;37.950;-122.338;2023-01-28T12:48:31;101547.53;;;4.95;83.81
70009;BME280;59542;37.950;-122.338;2023-01-28T12:51:14;101540.41;;;4.95;83.22
70009;BME280;59542;37.950;-122.338;2023-01-28T12:53:56;101540.69;;;4.92;83.25
70009;BME280;59542;37.950;-122.338;2023-01-28T12:56:36;101541.91;;;4.62;85.68
70009;BME280;59542;37.950;-122.338;2023-01-28T13:04:38;101547.81;;;4.92;84.19
70009;BME280;59542;37.950;-122.338;2023-01-28T13:07:17;101553.97;;;4.74;85.94
70009;BME280;59542;37.950;-122.338;2023-01-28T13:10:29;101548.50;;;4.76;86.25
70009;BME280;59542;37.950;-122.338;2023-01-28T13:13:02;101551.53;;;4.99;84.98
70009;BME280;59542;37.950;-122.338;2023-01-28T13:15:29;101556.84;;;4.81;85.81
70009;BME280;59542;37.950;-122.338;2023-01-28T13:18:00;101546.22;;;4.81;85.65
70009;BME280;59542;37.950;-122.338;2023-01-28T13:23:47;101545.72;;;4.78;84.95
70009;BME280;59542;37.950;-122.338;2023-01-28T13:28:48;101540.09;;;4.81;85.43
70009;BME280;59542;37.950;-122.338;2023-01-28T13:31:22;101536.22;;;4.75;84.85
70009;BME280;59542;37.950;-122.338;2023-01-28T13:36:44;101524.25;;;4.71;84.73
70009;BME280;59542;37.950;-122.338;2023-01-28T13:39:20;101522.28;;;4.91;84.67
70009;BME280;59542;37.950;-122.338;2023-01-28T13:41:50;101518.75;;;5.00;83.73
70009;BME280;59542;37.950;-122.338;2023-01-28T13:44:34;101517.88;;;4.82;83.84
70009;BME280;59542;37.950;-122.338;2023-01-28T13:52:19;101520.75;;;4.53;85.22
70009;BME280;59542;37.950;-122.338;2023-01-28T13:54:58;101519.56;;;4.83;83.32
70009;BME280;59542;37.950;-122.338;2023-01-28T14:00:26;101506.44;;;4.81;83.37
70009;BME280;59542;37.950;-122.338;2023-01-28T14:19:01;101498.94;;;4.59;83.77
70009;BME280;59542;37.950;-122.338;2023-01-28T14:21:31;101496.63;;;4.56;83.86
70009;BME280;59542;37.950;-122.338;2023-01-28T14:23:59;101494.47;;;4.41;84.80
70009;BME280;59542;37.950;-122.338;2023-01-28T14:32:26;101486.91;;;4.64;83.50
70009;BME280;59542;37.950;-122.338;2023-01-28T14:34:52;101493.63;;;4.59;83.52
70009;BME280;59542;37.950;-122.338;2023-01-28T14:37:24;101490.84;;;4.60;83.83
70009;BME280;59542;37.950;-122.338;2023-01-28T14:39:57;101494.25;;;4.53;84.16
70009;BME280;59542;37.950;-122.338;2023-01-28T14:42:36;101491.59;;;4.53;83.87
70009;BME280;59542;37.950;-122.338;2023-01-28T14:53:43;101506.66;;;4.52;83.68
70009;BME280;59542;37.950;-122.338;2023-01-28T15:01:58;101519.25;;;4.50;83.35
70009;BME280;59542;37.950;-122.338;2023-01-28T15:04:30;101529.97;;;4.48;83.25
70009;BME280;59542;37.950;-122.338;2023-01-28T15:07:11;101534.00;;;4.53;83.15
70009;BME280;59542;37.950;-122.338;2023-01-28T15:09:40;101537.22;;;4.56;83.43
70009;BME280;59542;37.950;-122.338;2023-01-28T15:12:07;101546.78;;;4.67;83.44